createdAt,value
2023-05-22T14:48:26.456Z,3.63
2023-05-22T14:53:31.046Z,4.28
2023-05-22T14:58:35.545Z,3.78
2023-05-22T15:03:41.555Z,9.05
2023-05-22T15:08:46.211Z,4.60
2023-05-22T15:13:50.917Z,6.53
2023-05-22T15:18:56.538Z,4.20
2023-05-22T15:24:01.362Z,5.03
2023-05-22T15:29:06.112Z,6.68
2023-05-22T15:34:11.951Z,3.63
2023-05-22T15:39:16.782Z,3.00
2023-05-22T15:44:21.048Z,7.22
2023-05-22T15:49:28.586Z,3.30
2023-05-22T15:54:34.430Z,5.60
2023-05-22T15:59:38.747Z,7.03
2023-05-22T16:04:44.306Z,6.05
2023-05-22T16:09:50.268Z,10.75
2023-05-22T16:15:00.211Z,4.30
2023-05-22T16:20:09.019Z,3.65
2023-05-22T16:25:13.839Z,6.50
2023-05-22T16:30:18.657Z,5.35
2023-05-22T16:35:24.381Z,3.55
2023-05-22T16:40:28.752Z,5.93
2023-05-22T16:45:33.179Z,5.60
2023-05-22T16:50:39.063Z,6.63
2023-05-22T16:55:43.665Z,4.78
2023-05-22T17:00:47.894Z,6.03
2023-05-22T17:10:58.134Z,8.13
2023-05-22T17:21:09.154Z,7.15
2023-05-22T17:26:14.640Z,5.57
2023-05-22T17:31:18.895Z,6.35
2023-05-22T17:36:24.599Z,11.13
2023-05-22T17:41:28.862Z,7.88
2023-05-22T17:46:33.217Z,9.63
2023-05-22T17:56:43.276Z,5.75
2023-05-22T18:01:48.022Z,7.25
2023-05-22T18:06:53.734Z,11.93
2023-05-22T18:12:00.836Z,13.27
2023-05-22T18:17:05.439Z,10.45
2023-05-22T18:22:10.997Z,16.17
2023-05-22T18:27:15.372Z,11.43
2023-05-22T18:32:19.580Z,8.73
2023-05-22T18:37:26.148Z,13.10
2023-05-22T18:42:30.392Z,10.32
2023-05-22T18:47:34.633Z,11.30
2023-05-22T18:52:40.935Z,15.82
2023-05-22T18:57:45.092Z,11.25
2023-05-22T19:02:49.294Z,10.95
2023-05-22T19:07:57.858Z,8.15
2023-05-22T19:13:02.287Z,12.10
2023-05-22T19:18:06.946Z,10.82
2023-05-22T19:23:13.765Z,8.30
2023-05-22T19:28:18.089Z,10.30
2023-05-22T19:33:25.419Z,8.00
2023-05-22T19:38:31.161Z,9.05
2023-05-22T19:43:35.590Z,9.68
2023-05-22T19:48:40.026Z,11.43
2023-05-22T19:53:45.637Z,11.63
2023-05-22T19:58:49.965Z,8.13
2023-05-22T20:03:56.425Z,8.40
2023-05-22T20:09:05.882Z,9.85
2023-05-22T20:14:11.884Z,9.18
2023-05-22T20:19:17.700Z,13.38
2023-05-22T20:24:25.124Z,9.63
2023-05-22T20:29:29.589Z,10.27
2023-05-22T20:34:34.033Z,12.55
2023-05-22T20:39:41.713Z,15.00
2023-05-22T20:44:46.333Z,11.90
2023-05-22T20:49:50.949Z,9.55
2023-05-22T20:54:56.967Z,11.55
2023-05-22T21:00:01.390Z,8.35
2023-05-22T21:05:07.886Z,11.20
2023-05-22T21:10:13.995Z,14.40
2023-05-22T21:15:19.013Z,11.07
2023-05-22T21:20:23.627Z,9.18
2023-05-22T21:25:29.168Z,12.15
2023-05-22T21:30:33.735Z,9.90
2023-05-22T21:35:38.400Z,6.68
2023-05-22T21:40:43.977Z,10.43
2023-05-22T21:45:48.427Z,9.30
2023-05-22T21:50:52.786Z,8.10
2023-05-22T21:55:58.559Z,8.38
2023-05-22T22:01:03.286Z,7.97
2023-05-22T22:06:08.350Z,8.75
2023-05-22T22:16:18.522Z,10.77
2023-05-22T22:21:22.813Z,12.93
2023-05-22T22:26:30.973Z,13.10
2023-05-22T22:31:36.132Z,11.43
2023-05-22T22:36:41.300Z,11.10
2023-05-22T22:41:46.849Z,12.15
2023-05-22T22:46:51.740Z,12.50
2023-05-22T22:51:56.591Z,10.07
2023-05-22T22:57:02.547Z,9.43
2023-05-22T23:02:07.120Z,10.80
2023-05-22T23:07:11.517Z,14.52
2023-05-22T23:12:17.144Z,9.83
2023-05-22T23:17:22.131Z,11.20
2023-05-22T23:22:26.346Z,9.45
2023-05-22T23:27:31.914Z,14.07
2023-05-22T23:32:36.360Z,9.70
2023-05-22T23:37:40.725Z,13.07
2023-05-22T23:42:46.489Z,10.57
2023-05-22T23:47:50.697Z,10.20
2023-05-22T23:52:55.238Z,8.63
2023-05-22T23:58:00.855Z,11.38
